sensor_id;sensor_type;location;lat;lon;timestamp;P1;durP1;ratioP1;P2;durP2;ratioP2
68386;SDS011;55338;43.062;25.624;2022-10-16T00:01:45;12.32;;;7.10;;
68386;SDS011;55338;43.062;25.624;2022-10-16T00:04:11;12.52;;;6.72;;
68386;SDS011;55338;43.062;25.624;2022-10-16T00:06:38;11.00;;;6.70;;
68386;SDS011;55338;43.062;25.624;2022-10-16T00:09:04;13.63;;;6.45;;
68386;SDS011;55338;43.062;25.624;2022-10-16T00:11:34;13.17;;;6.83;;
68386;SDS011;55338;43.062;25.624;2022-10-16T00:14:02;13.23;;;6.47;;
68386;SDS011;55338;43.062;25.624;2022-10-16T00:16:31;12.65;;;7.05;;
68386;SDS011;55338;43.062;25.624;2022-10-16T00:18:58;11.75;;;6.60;;
68386;SDS011;55338;43.062;25.624;2022-10-16T00:21:25;14.30;;;6.60;;
68386;SDS011;55338;43.062;25.624;2022-10-16T00:23:54;11.65;;;6.15;;
68386;SDS011;55338;43.062;25.624;2022-10-16T00:26:22;12.07;;;6.70;;
68386;SDS011;55338;43.062;25.624;2022-10-16T00:28:49;11.20;;;6.47;;
68386;SDS011;55338;43.062;25.624;2022-10-16T00:31:16;11.57;;;6.70;;
68386;SDS011;55338;43.062;25.624;2022-10-16T00:33:43;10.70;;;6.70;;
68386;SDS011;55338;43.062;25.624;2022-10-16T00:36:11;13.80;;;7.40;;
68386;SDS011;55338;43.062;25.624;2022-10-16T00:38:38;12.07;;;6.22;;
68386;SDS011;55338;43.062;25.624;2022-10-16T00:41:05;14.73;;;6.70;;
68386;SDS011;55338;43.062;25.624;2022-10-16T00:43:42;11.47;;;6.23;;
68386;SDS011;55338;43.062;25.624;2022-10-16T00:46:20;16.48;;;6.72;;
68386;SDS011;55338;43.062;25.624;2022-10-16T00:49:03;12.23;;;6.85;;
68386;SDS011;55338;43.062;25.624;2022-10-16T00:51:36;10.93;;;6.07;;
68386;SDS011;55338;43.062;25.624;2022-10-16T00:54:11;13.00;;;6.45;;
68386;SDS011;55338;43.062;25.624;2022-10-16T00:56:46;10.47;;;6.07;;
68386;SDS011;55338;43.062;25.624;2022-10-16T00:59:16;14.57;;;6.88;;
68386;SDS011;55338;43.062;25.624;2022-10-16T01:01:54;12.38;;;6.90;;
68386;SDS011;55338;43.062;25.624;2022-10-16T01:04:21;10.02;;;6.32;;
68386;SDS011;55338;43.062;25.624;2022-10-16T01:09:47;13.97;;;6.50;;
68386;SDS011;55338;43.062;25.624;2022-10-16T01:12:19;14.52;;;6.47;;
68386;SDS011;55338;43.062;25.624;2022-10-16T01:14:59;13.65;;;6.88;;
68386;SDS011;55338;43.062;25.624;2022-10-16T01:26:14;10.70;;;6.28;;
68386;SDS011;55338;43.062;25.624;2022-10-16T01:31:14;13.25;;;6.20;;
68386;SDS011;55338;43.062;25.624;2022-10-16T01:33:43;10.10;;;6.35;;
68386;SDS011;55338;43.062;25.624;2022-10-16T01:36:16;12.13;;;6.40;;
68386;SDS011;55338;43.062;25.624;2022-10-16T01:38:48;13.63;;;6.80;;
68386;SDS011;55338;43.062;25.624;2022-10-16T01:41:31;13.60;;;6.57;;
68386;SDS011;55338;43.062;25.624;2022-10-16T01:44:08;11.73;;;6.35;;
68386;SDS011;55338;43.062;25.624;2022-10-16T01:46:42;13.63;;;6.55;;
68386;SDS011;55338;43.062;25.624;2022-10-16T01:49:11;12.17;;;6.57;;
68386;SDS011;55338;43.062;25.624;2022-10-16T01:51:38;13.57;;;6.00;;
68386;SDS011;55338;43.062;25.624;2022-10-16T01:54:05;15.60;;;6.88;;
68386;SDS011;55338;43.062;25.624;2022-10-16T01:56:33;13.20;;;6.13;;
68386;SDS011;55338;43.062;25.624;2022-10-16T01:59:02;10.82;;;6.70;;
68386;SDS011;55338;43.062;25.624;2022-10-16T02:01:38;11.57;;;6.07;;
68386;SDS011;55338;43.062;25.624;2022-10-16T02:04:10;10.32;;;6.13;;
68386;SDS011;55338;43.062;25.624;2022-10-16T02:06:46;14.35;;;6.45;;
68386;SDS011;55338;43.062;25.624;2022-10-16T02:09:11;11.23;;;6.20;;
68386;SDS011;55338;43.062;25.624;2022-10-16T02:11:37;11.83;;;6.77;;
68386;SDS011;55338;43.062;25.624;2022-10-16T02:14:04;11.07;;;6.45;;
68386;SDS011;55338;43.062;25.624;2022-10-16T02:16:35;14.32;;;6.53;;
68386;SDS011;55338;43.062;25.624;2022-10-16T02:19:06;13.05;;;6.50;;
68386;SDS011;55338;43.062;25.624;2022-10-16T02:21:39;12.33;;;6.33;;
68386;SDS011;55338;43.062;25.624;2022-10-16T02:24:08;14.15;;;6.38;;
68386;SDS011;55338;43.062;25.624;2022-10-16T02:29:13;13.68;;;6.40;;
68386;SDS011;55338;43.062;25.624;2022-10-16T02:31:43;11.70;;;6.70;;
68386;SDS011;55338;43.062;25.624;2022-10-16T02:34:14;13.17;;;6.50;;
68386;SDS011;55338;43.062;25.624;2022-10-16T02:36:41;12.27;;;6.28;;
68386;SDS011;55338;43.062;25.624;2022-10-16T02:39:09;12.82;;;6.22;;
68386;SDS011;55338;43.062;25.624;2022-10-16T02:41:35;10.23;;;5.90;;
68386;SDS011;55338;43.062;25.624;2022-10-16T02:44:01;12.60;;;5.97;;
68386;SDS011;55338;43.062;25.624;2022-10-16T02:46:27;10.10;;;5.75;;
68386;SDS011;55338;43.062;25.624;2022-10-16T02:48:53;9.00;;;5.55;;
68386;SDS011;55338;43.062;25.624;2022-10-16T02:51:19;14.77;;;5.67;;
68386;SDS011;55338;43.062;25.624;2022-10-16T02:53:44;10.20;;;5.70;;
68386;SDS011;55338;43.062;25.624;2022-10-16T02:56:10;11.27;;;5.70;;
68386;SDS011;55338;43.062;25.624;2022-10-16T02:58:36;12.35;;;6.40;;
68386;SDS011;55338;43.062;25.624;2022-10-16T03:01:01;11.17;;;5.73;;
68386;SDS011;55338;43.062;25.624;2022-10-16T03:03:27;12.15;;;6.03;;
68386;SDS011;55338;43.062;25.624;2022-10-16T03:05:53;10.23;;;5.82;;
68386;SDS011;55338;43.062;25.624;2022-10-16T03:08:19;14.57;;;6.40;;
68386;SDS011;55338;43.062;25.624;2022-10-16T03:10:48;10.38;;;5.80;;
68386;SDS011;55338;43.062;25.624;2022-10-16T03:13:14;10.77;;;6.00;;
68386;SDS011;55338;43.062;25.624;2022-10-16T03:15:40;13.17;;;6.60;;
68386;SDS011;55338;43.062;25.624;2022-10-16T03:18:06;13.82;;;6.35;;
68386;SDS011;55338;43.062;25.624;2022-10-16T03:20:32;11.50;;;6.40;;
68386;SDS011;55338;43.062;25.624;2022-10-16T03:22:58;13.75;;;6.18;;
68386;SDS011;55338;43.062;25.624;2022-10-16T03:25:24;13.95;;;5.70;;
68386;SDS011;55338;43.062;25.624;2022-10-16T03:27:49;12.43;;;5.70;;
68386;SDS011;55338;43.062;25.624;2022-10-16T03:30:15;12.68;;;6.07;;
68386;SDS011;55338;43.062;25.624;2022-10-16T03:32:41;10.52;;;6.00;;
68386;SDS011;55338;43.062;25.624;2022-10-16T03:35:08;14.35;;;6.40;;
68386;SDS011;55338;43.062;25.624;2022-10-16T03:37:34;13.50;;;7.22;;
68386;SDS011;55338;43.062;25.624;2022-10-16T03:40:00;12.02;;;6.50;;
68386;SDS011;55338;43.062;25.624;2022-10-16T03:42:26;13.82;;;7.00;;
68386;SDS011;55338;43.062;25.624;2022-10-16T03:44:52;32.80;;;7.40;;
68386;SDS011;55338;43.062;25.624;2022-10-16T03:47:17;12.77;;;6.43;;
68386;SDS011;55338;43.062;25.624;2022-10-16T03:49:46;13.17;;;6.40;;
68386;SDS011;55338;43.062;25.624;2022-10-16T03:52:13;12.93;;;6.50;;
68386;SDS011;55338;43.062;25.624;2022-10-16T03:54:39;10.45;;;5.82;;
68386;SDS011;55338;43.062;25.624;2022-10-16T03:57:05;9.50;;;5.75;;
68386;SDS011;55338;43.062;25.624;2022-10-16T03:59:30;14.57;;;7.07;;
68386;SDS011;55338;43.062;25.624;2022-10-16T04:01:56;14.93;;;6.78;;
68386;SDS011;55338;43.062;25.624;2022-10-16T04:04:22;12.33;;;6.40;;
68386;SDS011;55338;43.062;25.624;2022-10-16T04:06:47;14.00;;;6.25;;
68386;SDS011;55338;43.062;25.624;2022-10-16T04:09:13;12.33;;;6.40;;
68386;SDS011;55338;43.062;25.624;2022-10-16T04:11:39;14.85;;;6.60;;
68386;SDS011;55338;43.062;25.624;2022-10-16T04:14:05;11.57;;;5.80;;
68386;SDS011;55338;43.062;25.624;2022-10-16T04:16:30;10.10;;;5.80;;
68386;SDS011;55338;43.062;25.624;2022-10-16T04:18:56;9.87;;;5.30;;
68386;SDS011;55338;43.062;25.624;2022-10-16T04:21:22;14.13;;;6.75;;
68386;SDS011;55338;43.062;25.624;2022-10-16T04:23:48;11.43;;;6.50;;
68386;SDS011;55338;43.062;25.624;2022-10-16T04:26:14;11.57;;;6.55;;
68386;SDS011;55338;43.062;25.624;2022-10-16T04:28:40;10.40;;;5.90;;
68386;SDS011;55338;43.062;25.624;2022-10-16T04:31:06;12.40;;;7.10;;
68386;SDS011;55338;43.062;25.624;2022-10-16T04:33:32;12.90;;;6.32;;
68386;SDS011;55338;43.062;25.624;2022-10-16T04:35:59;16.17;;;6.63;;
68386;SDS011;55338;43.062;25.624;2022-10-16T04:38:26;12.63;;;6.37;;
68386;SDS011;55338;43.062;25.624;2022-10-16T04:40:52;13.98;;;7.05;;
68386;SDS011;55338;43.062;25.624;2022-10-16T04:43:18;14.35;;;7.18;;
68386;SDS011;55338;43.062;25.624;2022-10-16T04:45:44;14.73;;;7.30;;
68386;SDS011;55338;43.062;25.624;2022-10-16T04:48:10;18.97;;;7.80;;
68386;SDS011;55338;43.062;25.624;2022-10-16T04:50:35;16.48;;;7.70;;
68386;SDS011;55338;43.062;25.624;2022-10-16T04:53:01;18.70;;;8.27;;
68386;SDS011;55338;43.062;25.624;2022-10-16T04:55:27;19.23;;;8.35;;
68386;SDS011;55338;43.062;25.624;2022-10-16T04:57:53;24.60;;;8.82;;
68386;SDS011;55338;43.062;25.624;2022-10-16T05:00:18;19.40;;;8.00;;
68386;SDS011;55338;43.062;25.624;2022-10-16T05:02:44;17.85;;;8.25;;
68386;SDS011;55338;43.062;25.624;2022-10-16T05:05:10;15.80;;;8.10;;
68386;SDS011;55338;43.062;25.624;2022-10-16T05:07:36;13.05;;;7.47;;
68386;SDS011;55338;43.062;25.624;2022-10-16T05:10:02;19.27;;;8.00;;
68386;SDS011;55338;43.062;25.624;2022-10-16T05:12:29;14.73;;;7.50;;
68386;SDS011;55338;43.062;25.624;2022-10-16T05:14:54;15.30;;;7.25;;
68386;SDS011;55338;43.062;25.624;2022-10-16T05:17:24;18.73;;;8.73;;
68386;SDS011;55338;43.062;25.624;2022-10-16T05:19:50;16.88;;;8.55;;
68386;SDS011;55338;43.062;25.624;2022-10-16T05:22:16;19.10;;;8.35;;
68386;SDS011;55338;43.062;25.624;2022-10-16T05:24:42;20.30;;;9.38;;
68386;SDS011;55338;43.062;25.624;2022-10-16T05:27:08;15.97;;;8.20;;
68386;SDS011;55338;43.062;25.624;2022-10-16T05:29:33;19.98;;;9.75;;
68386;SDS011;55338;43.062;25.624;2022-10-16T05:32:00;18.27;;;7.78;;
68386;SDS011;55338;43.062;25.624;2022-10-16T05:34:25;17.37;;;7.47;;
68386;SDS011;55338;43.062;25.624;2022-10-16T05:36:51;22.20;;;8.63;;
68386;SDS011;55338;43.062;25.624;2022-10-16T05:39:17;21.57;;;9.23;;
68386;SDS011;55338;43.062;25.624;2022-10-16T05:41:44;18.05;;;8.38;;
68386;SDS011;55338;43.062;25.624;2022-10-16T05:44:09;18.73;;;8.93;;
68386;SDS011;55338;43.062;25.624;2022-10-16T05:46:35;20.67;;;8.70;;
68386;SDS011;55338;43.062;25.624;2022-10-16T05:49:01;22.58;;;8.93;;
68386;SDS011;55338;43.062;25.624;2022-10-16T05:51:27;22.55;;;8.80;;
68386;SDS011;55338;43.062;25.624;2022-10-16T05:53:53;23.10;;;8.77;;
68386;SDS011;55338;43.062;25.624;2022-10-16T05:56:18;19.58;;;8.95;;
68386;SDS011;55338;43.062;25.624;2022-10-16T05:58:44;17.67;;;8.60;;
68386;SDS011;55338;43.062;25.624;2022-10-16T06:01:12;17.05;;;7.97;;
68386;SDS011;55338;43.062;25.624;2022-10-16T06:03:37;19.25;;;8.25;;
68386;SDS011;55338;43.062;25.624;2022-10-16T06:06:07;17.50;;;8.40;;
68386;SDS011;55338;43.062;25.624;2022-10-16T06:08:37;20.30;;;9.45;;
68386;SDS011;55338;43.062;25.624;2022-10-16T06:11:04;17.48;;;8.45;;
68386;SDS011;55338;43.062;25.624;2022-10-16T06:13:32;19.80;;;8.38;;
68386;SDS011;55338;43.062;25.624;2022-10-16T06:15:58;17.87;;;8.43;;
68386;SDS011;55338;43.062;25.624;2022-10-16T06:18:25;18.48;;;7.70;;
68386;SDS011;55338;43.062;25.624;2022-10-16T06:20:52;19.05;;;8.27;;
68386;SDS011;55338;43.062;25.624;2022-10-16T06:23:17;15.87;;;7.73;;
68386;SDS011;55338;43.062;25.624;2022-10-16T06:25:43;21.35;;;8.23;;
68386;SDS011;55338;43.062;25.624;2022-10-16T06:28:09;18.97;;;8.37;;
68386;SDS011;55338;43.062;25.624;2022-10-16T06:30:35;26.25;;;8.45;;
68386;SDS011;55338;43.062;25.624;2022-10-16T06:33:00;19.75;;;8.13;;
68386;SDS011;55338;43.062;25.624;2022-10-16T06:35:26;19.52;;;8.63;;
68386;SDS011;55338;43.062;25.624;2022-10-16T06:37:52;18.85;;;7.65;;
68386;SDS011;55338;43.062;25.624;2022-10-16T06:40:18;16.60;;;7.88;;
68386;SDS011;55338;43.062;25.624;2022-10-16T06:42:44;16.85;;;7.50;;
68386;SDS011;55338;43.062;25.624;2022-10-16T06:45:10;24.33;;;8.48;;
68386;SDS011;55338;43.062;25.624;2022-10-16T06:47:36;17.23;;;8.60;;
68386;SDS011;55338;43.062;25.624;2022-10-16T06:50:02;13.98;;;7.13;;
68386;SDS011;55338;43.062;25.624;2022-10-16T06:52:28;15.82;;;7.10;;
68386;SDS011;55338;43.062;25.624;2022-10-16T06:54:54;13.33;;;7.10;;
68386;SDS011;55338;43.062;25.624;2022-10-16T06:57:20;13.23;;;7.20;;
68386;SDS011;55338;43.062;25.624;2022-10-16T06:59:45;16.00;;;7.30;;
68386;SDS011;55338;43.062;25.624;2022-10-16T07:02:11;16.35;;;7.15;;
68386;SDS011;55338;43.062;25.624;2022-10-16T07:04:37;14.03;;;6.97;;
68386;SDS011;55338;43.062;25.624;2022-10-16T07:07:03;15.95;;;7.10;;
68386;SDS011;55338;43.062;25.624;2022-10-16T07:09:28;12.93;;;6.57;;
68386;SDS011;55338;43.062;25.624;2022-10-16T07:11:54;13.30;;;6.80;;
68386;SDS011;55338;43.062;25.624;2022-10-16T07:14:20;14.80;;;6.87;;
68386;SDS011;55338;43.062;25.624;2022-10-16T07:16:47;11.15;;;6.55;;
68386;SDS011;55338;43.062;25.624;2022-10-16T07:19:13;13.45;;;6.32;;
68386;SDS011;55338;43.062;25.624;2022-10-16T07:21:40;11.02;;;6.30;;
68386;SDS011;55338;43.062;25.624;2022-10-16T07:24:10;10.00;;;6.13;;
68386;SDS011;55338;43.062;25.624;2022-10-16T07:26:38;12.73;;;6.10;;
68386;SDS011;55338;43.062;25.624;2022-10-16T07:29:06;9.57;;;5.55;;
68386;SDS011;55338;43.062;25.624;2022-10-16T07:31:32;10.82;;;5.97;;
68386;SDS011;55338;43.062;25.624;2022-10-16T07:33:58;11.20;;;5.90;;
68386;SDS011;55338;43.062;25.624;2022-10-16T07:36:25;8.43;;;5.27;;
68386;SDS011;55338;43.062;25.624;2022-10-16T07:38:51;9.52;;;5.88;;
68386;SDS011;55338;43.062;25.624;2022-10-16T07:41:17;10.68;;;6.10;;
68386;SDS011;55338;43.062;25.624;2022-10-16T07:43:48;10.02;;;5.90;;
68386;SDS011;55338;43.062;25.624;2022-10-16T07:46:15;9.90;;;5.78;;
68386;SDS011;55338;43.062;25.624;2022-10-16T07:48:42;8.68;;;5.70;;
68386;SDS011;55338;43.062;25.624;2022-10-16T07:51:11;10.70;;;5.40;;
68386;SDS011;55338;43.062;25.624;2022-10-16T07:53:38;11.43;;;5.90;;
68386;SDS011;55338;43.062;25.624;2022-10-16T07:56:04;8.80;;;5.60;;
68386;SDS011;55338;43.062;25.624;2022-10-16T07:58:31;9.95;;;6.05;;
68386;SDS011;55338;43.062;25.624;2022-10-16T08:00:58;9.10;;;5.70;;
68386;SDS011;55338;43.062;25.624;2022-10-16T08:03:24;8.35;;;5.80;;
68386;SDS011;55338;43.062;25.624;2022-10-16T08:05:50;9.17;;;5.47;;
68386;SDS011;55338;43.062;25.624;2022-10-16T08:08:17;14.25;;;5.78;;
68386;SDS011;55338;43.062;25.624;2022-10-16T08:10:43;8.50;;;5.22;;
68386;SDS011;55338;43.062;25.624;2022-10-16T08:13:10;9.63;;;5.03;;
68386;SDS011;55338;43.062;25.624;2022-10-16T08:15:35;9.67;;;6.03;;
68386;SDS011;55338;43.062;25.624;2022-10-16T08:18:02;13.32;;;6.30;;
68386;SDS011;55338;43.062;25.624;2022-10-16T08:20:30;9.40;;;5.82;;
68386;SDS011;55338;43.062;25.624;2022-10-16T08:22:57;10.07;;;5.30;;
68386;SDS011;55338;43.062;25.624;2022-10-16T08:25:23;9.98;;;5.72;;
68386;SDS011;55338;43.062;25.624;2022-10-16T08:27:50;10.03;;;5.17;;
68386;SDS011;55338;43.062;25.624;2022-10-16T08:30:17;8.15;;;5.32;;
68386;SDS011;55338;43.062;25.624;2022-10-16T08:32:44;7.97;;;5.78;;
68386;SDS011;55338;43.062;25.624;2022-10-16T08:35:11;9.95;;;5.60;;
68386;SDS011;55338;43.062;25.624;2022-10-16T08:37:37;8.70;;;5.05;;
68386;SDS011;55338;43.062;25.624;2022-10-16T08:40:05;11.60;;;5.30;;
68386;SDS011;55338;43.062;25.624;2022-10-16T08:45:19;7.07;;;4.40;;
68386;SDS011;55338;43.062;25.624;2022-10-16T08:50:35;8.05;;;4.72;;
68386;SDS011;55338;43.062;25.624;2022-10-16T08:53:03;7.93;;;4.80;;
68386;SDS011;55338;43.062;25.624;2022-10-16T08:58:29;9.02;;;4.40;;
68386;SDS011;55338;43.062;25.624;2022-10-16T09:00:57;10.02;;;4.95;;
68386;SDS011;55338;43.062;25.624;2022-10-16T09:03:53;9.10;;;4.60;;
68386;SDS011;55338;43.062;25.624;2022-10-16T09:14:57;7.75;;;4.75;;
68386;SDS011;55338;43.062;25.624;2022-10-16T09:20:42;7.17;;;3.93;;
68386;SDS011;55338;43.062;25.624;2022-10-16T09:23:19;8.77;;;4.45;;
68386;SDS011;55338;43.062;25.624;2022-10-16T09:25:53;11.60;;;4.38;;
68386;SDS011;55338;43.062;25.624;2022-10-16T09:28:20;8.07;;;4.60;;
68386;SDS011;55338;43.062;25.624;2022-10-16T09:30:46;9.47;;;4.10;;
68386;SDS011;55338;43.062;25.624;2022-10-16T09:33:16;9.40;;;4.03;;
68386;SDS011;55338;43.062;25.624;2022-10-16T09:35:56;7.60;;;4.13;;
68386;SDS011;55338;43.062;25.624;2022-10-16T09:38:33;8.13;;;4.10;;
68386;SDS011;55338;43.062;25.624;2022-10-16T09:41:22;7.35;;;3.97;;
68386;SDS011;55338;43.062;25.624;2022-10-16T09:43:54;5.93;;;3.83;;
68386;SDS011;55338;43.062;25.624;2022-10-16T09:46:27;8.02;;;4.25;;
68386;SDS011;55338;43.062;25.624;2022-10-16T09:48:58;10.40;;;4.20;;
68386;SDS011;55338;43.062;25.624;2022-10-16T09:51:27;9.23;;;3.67;;
68386;SDS011;55338;43.062;25.624;2022-10-16T09:54:02;10.93;;;3.92;;
68386;SDS011;55338;43.062;25.624;2022-10-16T09:56:31;6.53;;;3.73;;
68386;SDS011;55338;43.062;25.624;2022-10-16T09:59:20;8.07;;;3.45;;
68386;SDS011;55338;43.062;25.624;2022-10-16T10:01:53;5.68;;;3.58;;
68386;SDS011;55338;43.062;25.624;2022-10-16T10:04:20;8.20;;;3.40;;
68386;SDS011;55338;43.062;25.624;2022-10-16T10:06:52;5.30;;;3.30;;
68386;SDS011;55338;43.062;25.624;2022-10-16T10:09:21;6.00;;;3.73;;
68386;SDS011;55338;43.062;25.624;2022-10-16T10:11:56;8.73;;;3.90;;
68386;SDS011;55338;43.062;25.624;2022-10-16T10:17:14;6.43;;;3.35;;
68386;SDS011;55338;43.062;25.624;2022-10-16T10:19:44;9.55;;;3.92;;
68386;SDS011;55338;43.062;25.624;2022-10-16T10:24:55;6.57;;;3.90;;
68386;SDS011;55338;43.062;25.624;2022-10-16T10:27:25;7.32;;;3.80;;
68386;SDS011;55338;43.062;25.624;2022-10-16T10:32:53;7.07;;;4.22;;
68386;SDS011;55338;43.062;25.624;2022-10-16T10:35:48;5.43;;;3.80;;
68386;SDS011;55338;43.062;25.624;2022-10-16T10:55:36;6.72;;;4.05;;
68386;SDS011;55338;43.062;25.624;2022-10-16T11:00:42;8.88;;;3.88;;
68386;SDS011;55338;43.062;25.624;2022-10-16T11:06:05;6.20;;;4.10;;
68386;SDS011;55338;43.062;25.624;2022-10-16T11:08:36;5.15;;;3.80;;
68386;SDS011;55338;43.062;25.624;2022-10-16T11:11:15;6.47;;;3.88;;
68386;SDS011;55338;43.062;25.624;2022-10-16T11:16:26;8.60;;;4.10;;
68386;SDS011;55338;43.062;25.624;2022-10-16T11:21:44;9.43;;;4.72;;
68386;SDS011;55338;43.062;25.624;2022-10-16T11:24:42;7.80;;;4.63;;
68386;SDS011;55338;43.062;25.624;2022-10-16T11:27:40;8.60;;;5.13;;
68386;SDS011;55338;43.062;25.624;2022-10-16T11:30:25;7.43;;;5.17;;
68386;SDS011;55338;43.062;25.624;2022-10-16T11:32:54;7.70;;;4.43;;
68386;SDS011;55338;43.062;25.624;2022-10-16T11:35:37;8.07;;;4.60;;
68386;SDS011;55338;43.062;25.624;2022-10-16T11:44:18;9.33;;;4.70;;
68386;SDS011;55338;43.062;25.624;2022-10-16T11:47:01;6.60;;;4.60;;
68386;SDS011;55338;43.062;25.624;2022-10-16T11:49:30;5.95;;;4.03;;
68386;SDS011;55338;43.062;25.624;2022-10-16T11:52:11;6.18;;;4.32;;
68386;SDS011;55338;43.062;25.624;2022-10-16T11:57:26;10.63;;;4.50;;
68386;SDS011;55338;43.062;25.624;2022-10-16T12:00:01;7.53;;;4.38;;
68386;SDS011;55338;43.062;25.624;2022-10-16T12:08:17;6.75;;;4.35;;
68386;SDS011;55338;43.062;25.624;2022-10-16T12:10:45;7.87;;;4.27;;
68386;SDS011;55338;43.062;25.624;2022-10-16T12:18:49;6.80;;;4.53;;
68386;SDS011;55338;43.062;25.624;2022-10-16T12:21:30;8.02;;;4.20;;
68386;SDS011;55338;43.062;25.624;2022-10-16T12:23:58;9.87;;;3.93;;
68386;SDS011;55338;43.062;25.624;2022-10-16T12:26:25;6.65;;;4.20;;
68386;SDS011;55338;43.062;25.624;2022-10-16T12:29:09;6.85;;;4.72;;
68386;SDS011;55338;43.062;25.624;2022-10-16T12:31:37;5.95;;;4.50;;
68386;SDS011;55338;43.062;25.624;2022-10-16T12:34:54;5.93;;;3.92;;
68386;SDS011;55338;43.062;25.624;2022-10-16T12:39:39;7.72;;;4.53;;
68386;SDS011;55338;43.062;25.624;2022-10-16T12:42:21;7.28;;;3.75;;
68386;SDS011;55338;43.062;25.624;2022-10-16T12:44:56;7.57;;;4.15;;
68386;SDS011;55338;43.062;25.624;2022-10-16T12:47:22;7.27;;;4.60;;
68386;SDS011;55338;43.062;25.624;2022-10-16T12:52:51;5.65;;;3.85;;
68386;SDS011;55338;43.062;25.624;2022-10-16T12:55:17;7.00;;;3.90;;
68386;SDS011;55338;43.062;25.624;2022-10-16T12:57:59;6.63;;;3.73;;
68386;SDS011;55338;43.062;25.624;2022-10-16T13:08:37;6.30;;;4.50;;
68386;SDS011;55338;43.062;25.624;2022-10-16T13:11:29;7.13;;;3.90;;
68386;SDS011;55338;43.062;25.624;2022-10-16T13:19:59;7.05;;;4.13;;
68386;SDS011;55338;43.062;25.624;2022-10-16T13:22:36;6.78;;;4.18;;
68386;SDS011;55338;43.062;25.624;2022-10-16T13:25:46;6.27;;;4.10;;
68386;SDS011;55338;43.062;25.624;2022-10-16T13:28:42;8.85;;;4.00;;
68386;SDS011;55338;43.062;25.624;2022-10-16T13:31:15;10.55;;;4.10;;
68386;SDS011;55338;43.062;25.624;2022-10-16T13:33:46;6.10;;;3.95;;
68386;SDS011;55338;43.062;25.624;2022-10-16T13:36:19;7.18;;;4.07;;
68386;SDS011;55338;43.062;25.624;2022-10-16T13:41:37;9.23;;;4.25;;
68386;SDS011;55338;43.062;25.624;2022-10-16T13:44:03;6.20;;;4.28;;
68386;SDS011;55338;43.062;25.624;2022-10-16T13:46:34;5.45;;;3.63;;
68386;SDS011;55338;43.062;25.624;2022-10-16T13:49:00;6.47;;;3.83;;
68386;SDS011;55338;43.062;25.624;2022-10-16T13:51:31;6.95;;;4.32;;
68386;SDS011;55338;43.062;25.624;2022-10-16T13:53:58;9.07;;;4.30;;
68386;SDS011;55338;43.062;25.624;2022-10-16T13:56:25;8.65;;;3.72;;
68386;SDS011;55338;43.062;25.624;2022-10-16T13:59:00;6.23;;;3.83;;
68386;SDS011;55338;43.062;25.624;2022-10-16T14:01:28;6.85;;;4.22;;
68386;SDS011;55338;43.062;25.624;2022-10-16T14:04:02;9.40;;;3.92;;
68386;SDS011;55338;43.062;25.624;2022-10-16T14:06:30;6.63;;;3.95;;
68386;SDS011;55338;43.062;25.624;2022-10-16T14:09:02;8.25;;;4.05;;
68386;SDS011;55338;43.062;25.624;2022-10-16T14:11:32;6.90;;;3.70;;
68386;SDS011;55338;43.062;25.624;2022-10-16T14:14:01;10.52;;;3.85;;
68386;SDS011;55338;43.062;25.624;2022-10-16T14:16:28;7.53;;;4.30;;
68386;SDS011;55338;43.062;25.624;2022-10-16T14:18:57;8.20;;;3.80;;
68386;SDS011;55338;43.062;25.624;2022-10-16T14:21:26;7.93;;;4.38;;
68386;SDS011;55338;43.062;25.624;2022-10-16T14:23:52;13.60;;;4.20;;
68386;SDS011;55338;43.062;25.624;2022-10-16T14:26:20;9.13;;;3.85;;
68386;SDS011;55338;43.062;25.624;2022-10-16T14:29:00;8.20;;;3.60;;
68386;SDS011;55338;43.062;25.624;2022-10-16T14:31:33;9.32;;;4.45;;
68386;SDS011;55338;43.062;25.624;2022-10-16T14:34:00;11.27;;;3.90;;
68386;SDS011;55338;43.062;25.624;2022-10-16T14:36:27;8.13;;;4.10;;
68386;SDS011;55338;43.062;25.624;2022-10-16T14:41:28;7.22;;;3.50;;
68386;SDS011;55338;43.062;25.624;2022-10-16T14:43:57;6.65;;;3.70;;
68386;SDS011;55338;43.062;25.624;2022-10-16T14:46:38;7.23;;;3.63;;
68386;SDS011;55338;43.062;25.624;2022-10-16T14:51:46;9.23;;;3.95;;
68386;SDS011;55338;43.062;25.624;2022-10-16T14:54:13;10.07;;;3.80;;
68386;SDS011;55338;43.062;25.624;2022-10-16T14:56:47;8.95;;;4.05;;
68386;SDS011;55338;43.062;25.624;2022-10-16T15:01:58;15.27;;;3.83;;
68386;SDS011;55338;43.062;25.624;2022-10-16T15:04:24;12.38;;;4.00;;
68386;SDS011;55338;43.062;25.624;2022-10-16T15:06:50;7.28;;;4.10;;
68386;SDS011;55338;43.062;25.624;2022-10-16T15:09:16;11.50;;;4.27;;
68386;SDS011;55338;43.062;25.624;2022-10-16T15:11:41;7.60;;;4.30;;
68386;SDS011;55338;43.062;25.624;2022-10-16T15:14:11;9.30;;;3.72;;
68386;SDS011;55338;43.062;25.624;2022-10-16T15:16:38;9.33;;;4.13;;
68386;SDS011;55338;43.062;25.624;2022-10-16T15:19:04;7.82;;;4.15;;
68386;SDS011;55338;43.062;25.624;2022-10-16T15:21:30;11.47;;;4.23;;
68386;SDS011;55338;43.062;25.624;2022-10-16T15:23:58;7.18;;;4.22;;
68386;SDS011;55338;43.062;25.624;2022-10-16T15:26:25;9.82;;;4.40;;
68386;SDS011;55338;43.062;25.624;2022-10-16T15:28:52;8.82;;;3.83;;
68386;SDS011;55338;43.062;25.624;2022-10-16T15:31:18;12.27;;;4.20;;
68386;SDS011;55338;43.062;25.624;2022-10-16T15:33:44;8.37;;;4.30;;
68386;SDS011;55338;43.062;25.624;2022-10-16T15:36:17;10.90;;;5.32;;
68386;SDS011;55338;43.062;25.624;2022-10-16T15:38:49;9.98;;;4.45;;
68386;SDS011;55338;43.062;25.624;2022-10-16T15:41:14;8.60;;;4.78;;
68386;SDS011;55338;43.062;25.624;2022-10-16T15:43:40;25.00;;;5.00;;
68386;SDS011;55338;43.062;25.624;2022-10-16T15:46:08;9.05;;;4.55;;
68386;SDS011;55338;43.062;25.624;2022-10-16T15:48:36;7.13;;;4.13;;
68386;SDS011;55338;43.062;25.624;2022-10-16T15:51:06;14.23;;;4.57;;
68386;SDS011;55338;43.062;25.624;2022-10-16T15:53:33;11.07;;;4.20;;
68386;SDS011;55338;43.062;25.624;2022-10-16T15:56:03;8.07;;;4.65;;
68386;SDS011;55338;43.062;25.624;2022-10-16T15:58:33;12.33;;;4.53;;
68386;SDS011;55338;43.062;25.624;2022-10-16T16:00:59;10.98;;;4.95;;
68386;SDS011;55338;43.062;25.624;2022-10-16T16:03:27;11.13;;;4.85;;
68386;SDS011;55338;43.062;25.624;2022-10-16T16:05:54;10.18;;;5.07;;
68386;SDS011;55338;43.062;25.624;2022-10-16T16:08:20;16.83;;;5.30;;
68386;SDS011;55338;43.062;25.624;2022-10-16T16:10:45;12.13;;;4.63;;
68386;SDS011;55338;43.062;25.624;2022-10-16T16:13:32;15.88;;;5.07;;
68386;SDS011;55338;43.062;25.624;2022-10-16T16:15:59;16.60;;;5.07;;
68386;SDS011;55338;43.062;25.624;2022-10-16T16:18:24;9.55;;;5.20;;
68386;SDS011;55338;43.062;25.624;2022-10-16T16:20:51;8.88;;;4.55;;
68386;SDS011;55338;43.062;25.624;2022-10-16T16:23:17;10.45;;;5.03;;
68386;SDS011;55338;43.062;25.624;2022-10-16T16:25:44;10.63;;;5.13;;
68386;SDS011;55338;43.062;25.624;2022-10-16T16:28:09;10.77;;;4.90;;
68386;SDS011;55338;43.062;25.624;2022-10-16T16:30:39;14.77;;;5.43;;
68386;SDS011;55338;43.062;25.624;2022-10-16T16:33:06;9.43;;;4.97;;
68386;SDS011;55338;43.062;25.624;2022-10-16T16:35:31;8.97;;;5.30;;
68386;SDS011;55338;43.062;25.624;2022-10-16T16:37:57;11.60;;;5.20;;
68386;SDS011;55338;43.062;25.624;2022-10-16T16:40:23;9.75;;;4.55;;
68386;SDS011;55338;43.062;25.624;2022-10-16T16:42:49;11.50;;;4.80;;